Aérodrome :
LOGIN :

S'inscrire | Disclaimer

   EN    FR    IT 

 










Légende :    VFR   VFR Marginal   IFR   IFR Intensif   IFR Très Intensif
Visi : 
Plafond : 
>= 8 km
>= 3000ft
5 à 8 km
1000 à 3000 ft
1500m à 5 km
500 à 1000 ft
800 à 1500m
200 à 500 ft
< 800m
< 200 ft
Symboles :   Orages  Brouillard  Fortes neiges  Fortes précipitations  Vent > 20 kt
SIGMETs :   Divers  Orages  Givrage  Turbulence  Onde Orograph.  Cendres Volcan.







- Altitude de l'aérodrome : 0 ft


ETEB - Ansbach Army Heliport

METARs EXPIRÉS :
  • 241441Z AUTO 30013G23KT 9999 CLR 25/10 A3001 RMK AO2 WSHFT 35 SLP158
  • 241427Z AUTO 29013G23KT 9999 CLR 26/10 A3001 RMK AO2 WSHFT 14 SLP156
  • 241358Z AUTO 28014G21KT 9999 CLR 25/10 A3002 RMK AO2 SLP161 T02530102
  • 241345Z AUTO 29013KT 9999 CLR 25/11 A3002 RMK AO2 WSHFT 39 SLP161
  • 241305Z AUTO 28015G22KT 9999 CLR 26/11 A3002 RMK AO2 WSHFT 1258 SLP160
  • 241258Z AUTO 23015G23KT 9999 CLR 25/11 A3002 RMK AO2 WSHFT 48 SLP160 T02530109
  • 241158Z AUTO 24017G24KT 9999 CLR 25/10 A3003 RMK AO2 SLP163 T02470101 10247 20193 58008

Prévision TAF périmée.
Pas de NOTAMs connus pour ce terrain.



MET'MAP, la Météo Aéronautique d'un coup d'oeil ! - Copyright ORBIFLY Décembre 2007 - Disclaimer

ORBIFLY MET'MAP TEAM :

Programmation & Développement : Alexandra Zaïnal
Conception & Développement : Baudouin d'Aumeries
Co-Programmation & Développement : Marc-Olivier Méhu
Soutien technique & logistique : Manuel Goepfert

Contact : metmap@orbifly.com




SOURCES & CREDITS :

   NOAA